Time;durP1;ratioP1;P1;durP2;ratioP2;P2;SDS_P1;SDS_P2;PMS_P1;PMS_P2;Temp;Humidity;BMP_temperature;BMP_pressure;BME280_temperature;BME280_humidity;BME280_pressure;Samples;Min_cycle;Max_cycle;Signal;HPM_P1;HPM_P2
2022/07/08 00:00:47;;;;;;;5.88;1.50;;;14.50;99.90;;;;;;5059219;27;20058;-87
2022/07/08 00:03:14;;;;;;;8.18;0.60;;;14.50;99.90;;;;;;5093624;27;20050;-87
2022/07/08 00:05:40;;;;;;;5.38;0.63;;;14.50;99.90;;;;;;5110119;28;20066;-87
2022/07/08 00:08:05;;;;;;;5.95;1.50;;;14.40;99.90;;;;;;5094406;27;20043;-87
2022/07/08 00:10:31;;;;;;;6.63;1.00;;;14.40;99.90;;;;;;5096507;27;20073;-87
2022/07/08 00:12:57;;;;;;;7.80;0.82;;;14.40;99.90;;;;;;5096933;27;20051;-87
2022/07/08 00:15:23;;;;;;;5.35;1.02;;;14.40;99.90;;;;;;5098014;27;20056;-87
2022/07/08 00:17:49;;;;;;;6.85;0.70;;;15.40;99.90;;;;;;5078420;28;20118;-89
2022/07/08 00:20:15;;;;;;;3.95;0.98;;;14.50;99.90;;;;;;5111065;27;20047;-87
2022/07/08 00:22:41;;;;;;;5.15;0.73;;;14.30;99.90;;;;;;5075715;27;20039;-87
2022/07/08 00:25:07;;;;;;;4.15;0.70;;;14.30;99.90;;;;;;5092616;28;20051;-87
2022/07/08 00:27:33;;;;;;;6.75;1.73;;;14.00;99.90;;;;;;5075576;28;20530;-87
2022/07/08 00:29:59;;;;;;;4.25;0.73;;;14.30;99.90;;;;;;5091571;28;20227;-87
2022/07/08 00:32:25;;;;;;;7.13;0.90;;;14.30;99.90;;;;;;5075803;28;20047;-88
2022/07/08 00:34:51;;;;;;;7.22;1.13;;;14.30;99.90;;;;;;5091544;28;20044;-87
2022/07/08 00:37:17;;;;;;;6.47;0.90;;;14.50;99.90;;;;;;5074627;28;20054;-86
2022/07/08 00:39:43;;;;;;;8.95;0.82;;;14.30;99.90;;;;;;5091296;28;20043;-87
2022/07/08 00:42:09;;;;;;;7.90;0.77;;;14.30;99.90;;;;;;5091706;28;20082;-87
2022/07/08 00:44:34;;;;;;;11.68;1.13;;;14.30;99.90;;;;;;5091610;28;20486;-87
2022/07/08 00:47:01;;;;;;;4.28;0.77;;;14.30;99.90;;;;;;5074330;27;20444;-87
2022/07/08 00:49:28;;;;;;;7.88;0.93;;;14.30;99.90;;;;;;5096218;27;20143;-86
2022/07/08 00:51:55;;;;;;;7.63;0.77;;;14.30;99.90;;;;;;5111448;27;20529;-87
2022/07/08 00:54:22;;;;;;;5.53;0.60;;;14.30;99.90;;;;;;5078673;27;20043;-86
2022/07/08 00:56:48;;;;;;;6.60;0.77;;;14.70;99.90;;;;;;5095925;27;20087;-87
2022/07/08 00:59:14;;;;;;;10.20;1.38;;;15.10;99.90;;;;;;5095201;27;20498;-88
2022/07/08 01:01:41;;;;;;;6.47;0.80;;;14.30;99.90;;;;;;5078498;27;20498;-87
2022/07/08 01:04:07;;;;;;;5.35;1.13;;;14.60;99.90;;;;;;5112110;27;20509;-87
2022/07/08 01:06:33;;;;;;;8.68;1.20;;;14.90;99.90;;;;;;5113332;27;20039;-87
2022/07/08 01:08:59;;;;;;;7.63;1.17;;;14.40;99.90;;;;;;5114503;27;20062;-88
2022/07/08 01:11:26;;;;;;;12.45;1.10;;;14.10;99.90;;;;;;5104099;27;20072;-87
2022/07/08 01:13:52;;;;;;;4.90;0.93;;;14.00;99.90;;;;;;5089606;27;20039;-87
2022/07/08 01:16:18;;;;;;;7.78;0.82;;;13.90;99.90;;;;;;5078934;27;20100;-87
2022/07/08 01:18:44;;;;;;;8.18;0.95;;;13.40;99.90;;;;;;5112454;27;20046;-87
2022/07/08 01:21:10;;;;;;;8.05;0.98;;;13.90;99.90;;;;;;5078391;27;20068;-87
2022/07/08 01:23:37;;;;;;;4.38;0.85;;;13.90;99.90;;;;;;5095491;27;20090;-86
2022/07/08 01:26:13;;;;;;;6.15;1.08;;;14.30;99.90;;;;;;5094206;27;20504;-87
2022/07/08 01:28:43;;;;;;;4.72;1.13;;;13.90;99.90;;;;;;5095230;27;20051;-87
2022/07/08 01:31:09;;;;;;;5.25;0.68;;;13.90;99.90;;;;;;5078269;27;20390;-87
2022/07/08 01:33:34;;;;;;;12.98;1.25;;;13.90;99.90;;;;;;5061331;27;20128;-87
2022/07/08 01:36:00;;;;;;;4.72;1.17;;;14.20;99.90;;;;;;5111948;27;20051;-87
2022/07/08 01:38:26;;;;;;;11.05;0.95;;;13.80;99.90;;;;;;5077393;27;20413;-86
2022/07/08 01:40:52;;;;;;;4.43;0.70;;;13.80;99.90;;;;;;5095138;27;20051;-87
2022/07/08 01:43:18;;;;;;;9.65;0.90;;;13.70;99.90;;;;;;5094163;27;20487;-87
2022/07/08 01:45:44;;;;;;;7.93;1.35;;;14.50;99.90;;;;;;5078131;27;20043;-87
2022/07/08 01:48:09;;;;;;;5.10;0.73;;;13.70;99.90;;;;;;5094460;27;20456;-87
2022/07/08 01:50:35;;;;;;;7.55;0.98;;;13.60;99.90;;;;;;5111083;27;20486;-87
2022/07/08 01:53:01;;;;;;;7.88;0.93;;;13.60;99.90;;;;;;5094299;27;20055;-86
2022/07/08 01:55:27;;;;;;;5.30;1.13;;;13.60;99.90;;;;;;5077215;27;20046;-87
2022/07/08 01:57:53;;;;;;;6.55;0.75;;;13.60;99.90;;;;;;5095020;27;20043;-86
2022/07/08 02:00:19;;;;;;;8.50;1.38;;;13.50;99.90;;;;;;5092757;27;20490;-88
2022/07/08 02:02:45;;;;;;;12.00;1.50;;;14.50;99.90;;;;;;5094945;27;20133;-86
2022/07/08 02:05:11;;;;;;;5.88;1.00;;;13.50;99.90;;;;;;5076707;27;20047;-87
2022/07/08 02:07:38;;;;;;;8.25;1.38;;;13.40;99.90;;;;;;5077671;27;20067;-87
2022/07/08 02:10:05;;;;;;;5.68;1.23;;;13.40;99.90;;;;;;5094002;27;20075;-87
2022/07/08 02:12:32;;;;;;;5.78;0.80;;;13.30;99.90;;;;;;5076578;27;20043;-87
2022/07/08 02:15:04;;;;;;;7.35;1.92;;;13.40;99.90;;;;;;5111140;27;20047;-87
2022/07/08 02:17:41;;;;;;;8.57;1.52;;;13.30;99.90;;;;;;5093185;27;20111;-87
2022/07/08 02:20:10;;;;;;;7.07;1.20;;;13.30;99.90;;;;;;5094037;27;20039;-87
2022/07/08 02:22:37;;;;;;;5.35;0.77;;;13.20;99.90;;;;;;5094168;27;20159;-87
2022/07/08 02:25:04;;;;;;;7.20;1.00;;;13.20;99.90;;;;;;5109928;27;20092;-87
2022/07/08 02:27:31;;;;;;;3.95;0.98;;;13.20;99.90;;;;;;5077641;27;20043;-87
2022/07/08 02:29:57;;;;;;;4.30;1.23;;;13.20;99.90;;;;;;5110756;27;20052;-87
2022/07/08 02:32:23;;;;;;;10.57;0.85;;;13.10;99.90;;;;;;5093792;27;20046;-87
2022/07/08 02:34:49;;;;;;;8.13;1.15;;;13.20;99.90;;;;;;5110292;27;20039;-87
2022/07/08 02:37:14;;;;;;;12.38;1.05;;;13.10;99.90;;;;;;5077742;27;20039;-87
2022/07/08 02:39:41;;;;;;;7.95;1.13;;;13.10;99.90;;;;;;5076444;27;20065;-87
2022/07/08 02:42:08;;;;;;;8.30;1.17;;;13.10;99.90;;;;;;5110077;27;20204;-87
2022/07/08 02:44:36;;;;;;;7.85;1.13;;;13.10;99.90;;;;;;5059986;27;20043;-87
2022/07/08 02:47:05;;;;;;;7.72;0.85;;;13.10;99.90;;;;;;5076488;27;20039;-87
2022/07/08 02:49:31;;;;;;;9.90;1.20;;;13.00;99.90;;;;;;5094354;27;20043;-87
2022/07/08 02:51:57;;;;;;;7.18;1.23;;;12.90;99.90;;;;;;5075438;27;20047;-87
2022/07/08 02:54:22;;;;;;;12.55;1.27;;;12.90;99.90;;;;;;5060482;27;20050;-87
2022/07/08 02:56:48;;;;;;;5.53;0.75;;;12.80;99.90;;;;;;5076416;27;20487;-87
2022/07/08 02:59:16;;;;;;;5.53;1.10;;;12.90;99.90;;;;;;5077923;27;20046;-86
2022/07/08 03:01:42;;;;;;;7.68;1.45;;;13.90;99.90;;;;;;5096693;27;20047;-88
2022/07/08 03:04:08;;;;;;;7.18;0.93;;;12.80;99.90;;;;;;5103844;27;20163;-86
2022/07/08 03:06:35;;;;;;;7.63;1.40;;;12.80;99.90;;;;;;5087368;27;20035;-87
2022/07/08 03:09:01;;;;;;;9.18;1.05;;;12.80;99.90;;;;;;5075914;27;20142;-87
2022/07/08 03:11:27;;;;;;;10.27;1.10;;;12.70;99.90;;;;;;5076182;27;20071;-87
2022/07/08 03:13:53;;;;;;;9.88;1.08;;;12.70;99.90;;;;;;5058772;27;20039;-88
2022/07/08 03:16:18;;;;;;;5.63;1.27;;;12.70;99.90;;;;;;5058850;27;20047;-87
2022/07/08 03:18:44;;;;;;;10.05;1.30;;;12.70;99.90;;;;;;5092445;27;20471;-87
2022/07/08 03:21:10;;;;;;;12.57;1.15;;;12.70;99.90;;;;;;5091869;27;20062;-87
2022/07/08 03:23:35;;;;;;;8.05;0.70;;;12.90;99.90;;;;;;5075537;27;20123;-88
2022/07/08 03:26:02;;;;;;;7.10;1.42;;;12.60;99.90;;;;;;5058562;27;20464;-86
2022/07/08 03:28:27;;;;;;;6.90;0.75;;;12.60;99.90;;;;;;5110034;27;20107;-87
2022/07/08 03:30:53;;;;;;;6.53;0.85;;;13.20;99.90;;;;;;5058647;27;20439;-87
2022/07/08 03:33:19;;;;;;;3.95;1.33;;;12.60;99.90;;;;;;5075716;27;20055;-87
2022/07/08 03:35:45;;;;;;;6.82;0.82;;;12.60;99.90;;;;;;5075843;27;20485;-87
2022/07/08 03:38:10;;;;;;;8.02;1.27;;;12.10;99.90;;;;;;5092156;27;20091;-86
2022/07/08 03:43:21;;;;;;;5.50;1.27;;;12.60;99.90;;;;;;5094321;27;20047;-87
2022/07/08 03:45:47;;;;;;;7.15;1.02;;;12.60;99.90;;;;;;5092731;27;20050;-86
2022/07/08 03:48:13;;;;;;;5.20;1.10;;;12.70;99.90;;;;;;5074493;27;20043;-87
2022/07/08 03:50:39;;;;;;;10.65;1.60;;;12.70;99.90;;;;;;5092809;27;20363;-88
2022/07/08 03:53:05;;;;;;;4.10;1.30;;;13.20;99.90;;;;;;5110063;27;20042;-87
2022/07/08 03:55:31;;;;;;;10.35;2.08;;;13.20;99.90;;;;;;5091230;27;20084;-88
2022/07/08 03:57:58;;;;;;;12.63;1.38;;;13.80;99.90;;;;;;5109054;27;20102;-87
2022/07/08 04:00:24;;;;;;;10.88;1.75;;;12.80;99.90;;;;;;5091277;27;20051;-88
2022/07/08 04:02:49;;;;;;;12.43;1.00;;;13.40;99.90;;;;;;5075858;27;20498;-87
2022/07/08 04:05:15;;;;;;;11.10;1.60;;;13.40;99.90;;;;;;5090808;27;20084;-87
2022/07/08 04:07:41;;;;;;;8.75;1.27;;;12.80;99.90;;;;;;5091633;27;20043;-88
2022/07/08 04:10:07;;;;;;;8.45;1.45;;;13.40;99.90;;;;;;5108518;27;20083;-86
2022/07/08 04:12:33;;;;;;;8.80;1.58;;;12.80;99.90;;;;;;5074380;27;20043;-86
2022/07/08 04:14:59;;;;;;;6.20;1.00;;;13.30;99.90;;;;;;5058599;27;20130;-86
2022/07/08 04:17:25;;;;;;;8.73;1.70;;;14.00;99.90;;;;;;5074106;27;20378;-88
2022/07/08 04:19:51;;;;;;;6.13;1.20;;;12.90;99.90;;;;;;5109416;28;20051;-84
2022/07/08 04:22:16;;;;;;;7.57;1.20;;;13.00;99.90;;;;;;5090400;27;20100;-86
2022/07/08 04:24:42;;;;;;;9.57;1.38;;;13.50;99.90;;;;;;5108730;28;20086;-87
2022/07/08 04:27:08;;;;;;;6.35;1.88;;;13.10;99.90;;;;;;5074008;28;20383;-86
2022/07/08 04:29:33;;;;;;;13.52;1.25;;;13.20;99.90;;;;;;5091328;28;20583;-87
2022/07/08 04:32:01;;;;;;;6.55;1.27;;;13.30;99.90;;;;;;5108760;28;20043;-86
2022/07/08 04:34:26;;;;;;;4.05;1.50;;;13.40;99.90;;;;;;5107941;28;20040;-87
2022/07/08 04:36:52;;;;;;;6.82;1.30;;;13.90;99.90;;;;;;5092220;28;20043;-89
2022/07/08 04:39:18;;;;;;;6.40;1.08;;;13.70;99.90;;;;;;5090433;28;20049;-88
2022/07/08 04:41:44;;;;;;;6.75;1.35;;;13.80;99.90;;;;;;5092023;28;20074;-86
2022/07/08 04:44:09;;;;;;;10.77;1.50;;;13.80;99.90;;;;;;5090582;28;20039;-86
2022/07/08 04:46:35;;;;;;;7.47;0.93;;;13.90;99.90;;;;;;5126759;28;20043;-88
2022/07/08 04:49:01;;;;;;;7.57;1.38;;;14.00;99.90;;;;;;5075080;28;20043;-86
2022/07/08 04:51:27;;;;;;;8.57;1.60;;;14.00;99.90;;;;;;5108896;28;20486;-87
2022/07/08 04:53:52;;;;;;;10.27;1.15;;;14.30;99.90;;;;;;5077379;28;20130;-84
2022/07/08 04:56:18;;;;;;;3.33;0.80;;;14.10;99.90;;;;;;5083553;28;20043;-84
2022/07/08 04:58:44;;;;;;;11.90;1.80;;;14.20;99.90;;;;;;5096947;28;20049;-87
2022/07/08 05:01:09;;;;;;;2.13;1.08;;;14.30;99.90;;;;;;5058963;28;20394;-87
2022/07/08 05:03:35;;;;;;;10.30;1.70;;;14.40;99.90;;;;;;5112443;28;20122;-87
2022/07/08 05:06:01;;;;;;;10.88;2.47;;;15.20;99.90;;;;;;5061877;28;20046;-87
2022/07/08 05:08:27;;;;;;;4.07;1.05;;;14.50;99.90;;;;;;5096340;28;20558;-86
2022/07/08 05:10:52;;;;;;;8.50;1.77;;;14.50;99.90;;;;;;5078305;28;20084;-86
2022/07/08 05:13:18;;;;;;;4.30;0.98;;;14.60;99.90;;;;;;5110858;28;20047;-88
2022/07/08 05:15:44;;;;;;;5.55;1.05;;;14.60;99.90;;;;;;5060681;28;20047;-87
2022/07/08 05:18:10;;;;;;;5.30;0.95;;;14.60;99.90;;;;;;5075046;28;20051;-87
2022/07/08 05:20:36;;;;;;;9.45;2.13;;;14.60;99.90;;;;;;5091589;28;20092;-85
2022/07/08 05:23:03;;;;;;;8.45;1.77;;;14.70;99.90;;;;;;5091914;28;20040;-88
2022/07/08 05:25:29;;;;;;;9.48;1.27;;;14.70;99.90;;;;;;5073611;28;20489;-86
2022/07/08 05:27:54;;;;;;;10.60;1.60;;;14.80;99.90;;;;;;5090493;28;20046;-85
2022/07/08 05:30:20;;;;;;;9.65;1.40;;;14.80;99.90;;;;;;5089953;28;20560;-84
2022/07/08 05:32:46;;;;;;;7.25;1.40;;;14.90;99.90;;;;;;5107642;28;20046;-84
2022/07/08 05:35:12;;;;;;;11.30;1.75;;;15.20;99.90;;;;;;5108023;27;20050;-85
2022/07/08 05:37:38;;;;;;;12.48;1.42;;;15.20;99.90;;;;;;5111223;27;20047;-85
2022/07/08 05:40:08;;;;;;;7.05;1.60;;;15.40;99.90;;;;;;5093396;27;20051;-85
2022/07/08 05:42:34;;;;;;;5.25;1.17;;;15.40;99.90;;;;;;5076304;27;20054;-86
2022/07/08 05:44:59;;;;;;;5.32;1.20;;;15.70;99.90;;;;;;5094090;27;20051;-85
2022/07/08 05:47:25;;;;;;;9.45;1.73;;;15.60;99.90;;;;;;5093076;27;20140;-87
2022/07/08 05:49:51;;;;;;;9.70;1.73;;;15.90;99.90;;;;;;5094134;27;20202;-85
2022/07/08 05:52:18;;;;;;;7.80;1.40;;;15.70;99.90;;;;;;5092549;27;20475;-85
2022/07/08 05:54:45;;;;;;;11.20;1.33;;;15.80;99.90;;;;;;5076650;27;20045;-83
2022/07/08 05:57:14;;;;;;;9.48;1.17;;;15.90;99.90;;;;;;5109834;27;20039;-84
2022/07/08 05:59:41;;;;;;;5.18;1.58;;;16.00;99.90;;;;;;5109759;27;20512;-84
2022/07/08 06:02:07;;;;;;;5.40;1.05;;;16.10;99.90;;;;;;5093284;27;20038;-84
2022/07/08 06:04:33;;;;;;;7.78;1.20;;;16.30;99.90;;;;;;5109473;27;20438;-84
2022/07/08 06:06:58;;;;;;;8.07;1.25;;;16.90;99.90;;;;;;5076701;27;20039;-84
2022/07/08 06:09:24;;;;;;;9.63;1.17;;;16.50;99.90;;;;;;5075245;27;20043;-83
2022/07/08 06:11:50;;;;;;;9.88;2.22;;;16.60;99.90;;;;;;5110529;27;20047;-84
2022/07/08 06:14:16;;;;;;;8.93;0.85;;;16.70;99.90;;;;;;5109407;27;20039;-84
2022/07/08 06:16:42;;;;;;;11.30;1.33;;;16.70;99.90;;;;;;5110033;27;20492;-85
2022/07/08 06:19:08;;;;;;;9.55;1.60;;;17.10;99.90;;;;;;5128695;27;20084;-84
2022/07/08 06:21:33;;;;;;;6.53;1.35;;;16.90;99.90;;;;;;5092678;27;20073;-84
2022/07/08 06:24:00;;;;;;;8.07;1.55;;;16.90;99.90;;;;;;5072927;28;20040;-84
2022/07/08 06:26:26;;;;;;;9.00;2.15;;;17.00;99.90;;;;;;5088534;28;20040;-84
2022/07/08 06:28:52;;;;;;;7.85;0.90;;;17.20;99.90;;;;;;5089375;28;20043;-84
2022/07/08 06:31:18;;;;;;;5.50;1.85;;;17.20;99.90;;;;;;5105526;28;20039;-84
2022/07/08 06:33:44;;;;;;;7.38;1.05;;;17.30;99.90;;;;;;5106213;28;20059;-84
2022/07/08 06:36:09;;;;;;;8.95;1.20;;;17.40;99.90;;;;;;5106096;28;20042;-84
2022/07/08 06:38:35;;;;;;;6.55;1.17;;;17.50;99.90;;;;;;5105112;28;20043;-85
2022/07/08 06:41:01;;;;;;;6.15;1.30;;;17.60;99.90;;;;;;5106682;28;20123;-84
2022/07/08 06:43:26;;;;;;;7.63;1.42;;;17.60;99.90;;;;;;5106450;28;20046;-84
2022/07/08 06:45:52;;;;;;;5.05;1.23;;;17.70;99.90;;;;;;5105818;28;20403;-84
2022/07/08 06:48:18;;;;;;;4.60;1.00;;;17.70;99.90;;;;;;5073270;28;20094;-84
2022/07/08 06:50:44;;;;;;;10.57;1.35;;;17.80;99.90;;;;;;5065309;28;20082;-85
2022/07/08 06:53:09;;;;;;;6.70;1.73;;;17.80;99.90;;;;;;5107288;28;20058;-84
2022/07/08 06:55:35;;;;;;;4.63;1.27;;;16.90;99.90;;;;;;5088014;28;20404;-84
2022/07/08 06:58:01;;;;;;;5.03;0.93;;;18.00;99.90;;;;;;5072273;28;20044;-85
2022/07/08 07:00:27;;;;;;;8.10;0.85;;;18.00;99.90;;;;;;5106227;28;20091;-84
2022/07/08 07:02:54;;;;;;;6.03;0.90;;;18.10;99.90;;;;;;5106533;28;20498;-84
2022/07/08 07:05:20;;;;;;;10.98;1.17;;;18.10;99.90;;;;;;5106067;28;20044;-84
2022/07/08 07:07:46;;;;;;;9.13;1.00;;;18.10;99.90;;;;;;5088669;28;20039;-84
2022/07/08 07:10:12;;;;;;;6.15;1.48;;;18.10;99.90;;;;;;5105996;28;20088;-84
2022/07/08 07:12:38;;;;;;;6.75;0.98;;;18.20;99.90;;;;;;5104681;28;20469;-84
2022/07/08 07:15:04;;;;;;;11.70;1.98;;;18.20;99.90;;;;;;5089269;28;20054;-84
2022/07/08 07:17:29;;;;;;;9.20;1.33;;;18.30;99.90;;;;;;5104901;28;20083;-84
2022/07/08 07:19:57;;;;;;;4.68;1.40;;;18.30;99.90;;;;;;5106440;28;20116;-84
2022/07/08 07:22:23;;;;;;;14.07;1.30;;;18.40;99.90;;;;;;5104823;28;20047;-84
2022/07/08 07:24:49;;;;;;;7.20;0.82;;;18.40;99.90;;;;;;5105186;28;20039;-84
2022/07/08 07:27:14;;;;;;;5.25;1.05;;;18.40;99.90;;;;;;5072209;28;20123;-84
2022/07/08 07:29:40;;;;;;;5.45;0.93;;;18.50;99.90;;;;;;5104693;28;20051;-85
2022/07/08 07:32:06;;;;;;;3.53;1.15;;;18.50;99.90;;;;;;5089614;28;20196;-85
2022/07/08 07:34:32;;;;;;;7.10;1.08;;;18.50;99.90;;;;;;5071418;28;20039;-84
2022/07/08 07:36:57;;;;;;;4.72;0.73;;;18.50;99.90;;;;;;5106239;28;20513;-84
2022/07/08 07:39:23;;;;;;;7.63;1.23;;;18.60;99.90;;;;;;5104767;28;20040;-85
2022/07/08 07:41:49;;;;;;;6.35;1.20;;;18.50;99.90;;;;;;5111412;28;20050;-84
2022/07/08 07:44:15;;;;;;;11.38;1.50;;;18.60;99.90;;;;;;5112784;28;20051;-83
2022/07/08 07:46:41;;;;;;;5.28;1.00;;;18.60;99.90;;;;;;5097170;28;20124;-84
2022/07/08 07:49:07;;;;;;;6.28;0.88;;;18.60;99.90;;;;;;5079848;28;20036;-84
2022/07/08 07:51:32;;;;;;;5.18;0.90;;;18.60;99.90;;;;;;5077264;28;20067;-82
2022/07/08 07:53:58;;;;;;;8.50;0.90;;;18.50;99.90;;;;;;5112069;28;20055;-84
2022/07/08 07:56:24;;;;;;;5.45;1.70;;;18.50;99.90;;;;;;5092992;28;20047;-83
2022/07/08 07:58:50;;;;;;;3.75;0.98;;;18.60;99.90;;;;;;5113014;28;20478;-83
2022/07/08 08:01:16;;;;;;;8.73;1.48;;;18.60;99.90;;;;;;5110203;28;20051;-84
2022/07/08 08:03:41;;;;;;;7.78;1.08;;;18.60;99.90;;;;;;5111083;28;20047;-84
2022/07/08 08:06:07;;;;;;;10.07;1.63;;;18.60;99.90;;;;;;5093747;28;20048;-84
2022/07/08 08:08:34;;;;;;;4.53;1.70;;;18.60;99.90;;;;;;5093718;28;20040;-84
2022/07/08 08:11:01;;;;;;;12.57;1.00;;;19.30;99.90;;;;;;5094688;28;20047;-83
2022/07/08 08:13:28;;;;;;;4.55;0.80;;;18.70;99.90;;;;;;5092860;28;20032;-83
2022/07/08 08:15:54;;;;;;;5.75;1.17;;;18.60;99.90;;;;;;5093643;28;20495;-84
2022/07/08 08:18:20;;;;;;;6.05;1.17;;;18.70;99.90;;;;;;5091133;28;20099;-85
2022/07/08 08:20:46;;;;;;;8.55;1.27;;;18.70;99.90;;;;;;5073179;28;20071;-85
2022/07/08 08:23:12;;;;;;;6.55;1.00;;;18.70;99.90;;;;;;5105875;28;20521;-84
2022/07/08 08:25:37;;;;;;;3.90;0.93;;;18.70;99.90;;;;;;5088912;28;20087;-84
2022/07/08 08:28:04;;;;;;;7.00;1.00;;;18.70;99.90;;;;;;5106647;28;20057;-84
2022/07/08 08:30:30;;;;;;;4.65;1.05;;;18.80;99.90;;;;;;5071863;28;20441;-85
2022/07/08 08:32:58;;;;;;;7.25;1.27;;;18.80;99.90;;;;;;5107475;28;20048;-84
2022/07/08 08:35:24;;;;;;;5.95;0.95;;;18.80;99.90;;;;;;5104478;28;20445;-85
2022/07/08 08:37:50;;;;;;;6.03;0.93;;;18.80;99.90;;;;;;5089950;28;20051;-85
2022/07/08 08:40:18;;;;;;;4.05;0.90;;;18.80;99.90;;;;;;5106243;28;20078;-84
2022/07/08 08:42:44;;;;;;;9.18;1.20;;;18.90;99.90;;;;;;5093321;28;20047;-84
2022/07/08 08:45:10;;;;;;;14.50;1.92;;;18.90;99.90;;;;;;5100254;28;20124;-85
2022/07/08 08:47:37;;;;;;;7.38;1.33;;;18.80;99.90;;;;;;5089414;28;20043;-84
2022/07/08 08:52:54;;;;;;;5.47;1.00;;;18.90;99.90;;;;;;5093318;28;20047;-86
2022/07/08 08:55:26;;;;;;;6.30;1.38;;;18.90;99.90;;;;;;5106995;28;20040;-84
2022/07/08 08:57:56;;;;;;;7.00;1.05;;;19.20;99.90;;;;;;5090367;28;20441;-83
2022/07/08 09:00:22;;;;;;;11.07;2.28;;;19.00;99.90;;;;;;5087046;28;20050;-83
2022/07/08 09:02:48;;;;;;;6.60;1.15;;;19.10;99.90;;;;;;5088120;28;20046;-83
2022/07/08 09:05:15;;;;;;;7.82;1.08;;;19.20;99.90;;;;;;5103365;28;20047;-83
2022/07/08 09:07:43;;;;;;;7.03;0.88;;;19.30;99.90;;;;;;5071241;28;20146;-83
2022/07/08 09:10:09;;;;;;;10.68;1.45;;;19.50;99.90;;;;;;5105594;28;20059;-84
2022/07/08 09:12:35;;;;;;;7.57;1.15;;;19.70;99.90;;;;;;5090891;28;20040;-83
2022/07/08 09:15:01;;;;;;;2.67;0.88;;;19.80;99.90;;;;;;5092189;28;20073;-83
2022/07/08 09:17:27;;;;;;;4.43;1.15;;;19.90;99.90;;;;;;5091055;28;20052;-84
2022/07/08 09:19:53;;;;;;;8.70;1.85;;;19.90;99.90;;;;;;5109386;28;20054;-84
2022/07/08 09:22:23;;;;;;;7.63;1.40;;;20.00;99.90;;;;;;5107748;28;20052;-83
2022/07/08 09:24:49;;;;;;;10.05;1.13;;;20.10;99.90;;;;;;5090747;28;20087;-84
2022/07/08 09:27:16;;;;;;;10.10;1.17;;;20.20;99.90;;;;;;5090010;28;20470;-83
2022/07/08 09:30:01;;;;;;;5.72;1.05;;;20.20;99.90;;;;;;5106966;28;20052;-84
2022/07/08 09:32:27;;;;;;;5.57;0.90;;;20.30;99.90;;;;;;5074512;28;20465;-83
2022/07/08 09:34:53;;;;;;;3.25;0.88;;;20.30;99.90;;;;;;5089693;28;20052;-84
2022/07/08 09:37:20;;;;;;;5.43;1.10;;;20.30;99.90;;;;;;5108093;28;20139;-84
2022/07/08 09:39:47;;;;;;;5.38;1.35;;;20.20;99.90;;;;;;5089665;28;20473;-84
2022/07/08 09:42:14;;;;;;;8.32;1.20;;;20.20;99.90;;;;;;5106807;28;20052;-83
2022/07/08 09:44:41;;;;;;;7.10;1.02;;;20.30;99.90;;;;;;5057198;28;20066;-86
2022/07/08 09:47:14;;;;;;;3.42;1.00;;;20.40;99.90;;;;;;5089096;28;20130;-85
2022/07/08 09:49:46;;;;;;;5.57;1.00;;;20.40;99.90;;;;;;5090435;28;20383;-85
2022/07/08 09:52:20;;;;;;;4.30;0.77;;;20.50;99.90;;;;;;5106573;28;20546;-85
2022/07/08 09:54:57;;;;;;;4.25;0.65;;;20.70;99.90;;;;;;5074129;28;20044;-84
2022/07/08 09:57:24;;;;;;;7.78;1.15;;;20.80;99.90;;;;;;5107848;28;20553;-84
2022/07/08 09:59:50;;;;;;;11.48;1.75;;;20.90;99.90;;;;;;5090340;28;20039;-84
2022/07/08 10:02:18;;;;;;;4.55;1.00;;;21.10;99.90;;;;;;5076943;28;20046;-84
2022/07/08 10:04:44;;;;;;;4.15;1.08;;;21.00;99.90;;;;;;5091220;28;20296;-85
2022/07/08 10:07:10;;;;;;;5.78;1.08;;;21.00;99.90;;;;;;5110519;28;20351;-85
2022/07/08 10:09:36;;;;;;;4.97;0.85;;;20.90;99.90;;;;;;5092966;28;20347;-84
2022/07/08 10:12:04;;;;;;;7.35;1.95;;;20.90;99.90;;;;;;5091702;28;20050;-83
2022/07/08 10:14:32;;;;;;;5.63;0.90;;;20.90;99.90;;;;;;5089931;28;20043;-85
2022/07/08 10:16:59;;;;;;;2.80;1.13;;;21.00;99.90;;;;;;5110273;28;20048;-85
2022/07/08 10:19:30;;;;;;;7.78;1.10;;;21.10;99.90;;;;;;5108158;28;20060;-84
2022/07/08 10:21:58;;;;;;;6.68;1.02;;;21.20;99.90;;;;;;5106298;28;20098;-85
2022/07/08 10:24:29;;;;;;;6.85;1.00;;;21.40;99.90;;;;;;5091270;28;20392;-84
2022/07/08 10:27:00;;;;;;;2.33;1.13;;;21.50;99.90;;;;;;5106126;28;20052;-85
2022/07/08 10:29:31;;;;;;;5.22;0.85;;;21.50;99.90;;;;;;5072411;28;20052;-85
2022/07/08 10:31:57;;;;;;;4.80;0.80;;;21.60;99.90;;;;;;5107196;28;20059;-85
2022/07/08 10:34:32;;;;;;;5.30;1.23;;;21.70;99.90;;;;;;5110078;28;20112;-86
2022/07/08 10:36:58;;;;;;;4.72;1.73;;;21.80;99.90;;;;;;5114013;28;20118;-85
2022/07/08 10:39:46;;;;;;;4.45;1.23;;;22.00;99.90;;;;;;5091040;28;20134;-85
2022/07/08 10:42:12;;;;;;;5.25;0.75;;;22.30;99.90;;;;;;5089629;28;20062;-85
2022/07/08 10:44:44;;;;;;;3.75;0.90;;;22.40;99.90;;;;;;5089408;28;20428;-85
2022/07/08 10:47:12;;;;;;;3.97;0.88;;;22.40;99.90;;;;;;5105742;28;20067;-85
2022/07/08 10:49:45;;;;;;;3.85;1.20;;;22.30;99.90;;;;;;5090147;28;20334;-85
2022/07/08 10:52:12;;;;;;;9.00;1.30;;;22.20;99.90;;;;;;5087803;28;20043;-85
2022/07/08 10:54:38;;;;;;;6.82;1.33;;;22.20;99.90;;;;;;5107530;28;20047;-83
2022/07/08 10:57:16;;;;;;;4.90;0.85;;;22.90;99.90;;;;;;5106583;28;20082;-84
2022/07/08 11:00:10;;;;;;;4.88;0.88;;;22.00;99.90;;;;;;5107289;28;20107;-83
2022/07/08 11:02:45;;;;;;;4.35;1.02;;;21.90;99.90;;;;;;5076235;28;20127;-83
2022/07/08 11:05:41;;;;;;;1.95;0.80;;;21.80;99.90;;;;;;5105265;28;20477;-84
2022/07/08 11:08:26;;;;;;;7.70;1.10;;;21.90;99.90;;;;;;5108357;28;20059;-84
2022/07/08 11:10:53;;;;;;;7.43;1.00;;;22.10;99.90;;;;;;5074069;28;20069;-84
2022/07/08 11:13:20;;;;;;;5.32;1.30;;;22.50;99.90;;;;;;5087446;28;20039;-83
2022/07/08 11:15:46;;;;;;;4.82;0.90;;;22.60;99.90;;;;;;5107632;28;20054;-83
2022/07/08 11:18:21;;;;;;;7.18;0.90;;;22.70;99.90;;;;;;5104983;28;20078;-83
2022/07/08 11:20:47;;;;;;;3.88;1.08;;;22.80;99.90;;;;;;5106405;28;20142;-84
2022/07/08 11:23:15;;;;;;;4.63;0.90;;;22.80;99.90;;;;;;5089306;28;20130;-84
2022/07/08 11:25:40;;;;;;;6.22;1.30;;;22.90;99.90;;;;;;5072297;28;20088;-84
2022/07/08 11:28:24;;;;;;;3.17;0.90;;;23.10;99.90;;;;;;5089567;28;20075;-84
2022/07/08 11:30:50;;;;;;;5.40;1.25;;;23.40;99.90;;;;;;5088088;28;20047;-84
2022/07/08 11:33:16;;;;;;;4.90;1.40;;;23.40;99.90;;;;;;5071644;28;20039;-82
2022/07/08 11:35:42;;;;;;;3.78;1.35;;;23.40;99.90;;;;;;5105956;28;20490;-83
2022/07/08 11:38:07;;;;;;;3.45;1.00;;;23.60;99.90;;;;;;5105362;28;20108;-84
2022/07/08 11:40:43;;;;;;;5.15;1.00;;;23.60;99.90;;;;;;5106182;28;20044;-83
2022/07/08 11:43:21;;;;;;;5.57;1.13;;;23.50;99.90;;;;;;5087386;28;20510;-84
2022/07/08 11:45:46;;;;;;;6.07;1.00;;;23.60;99.90;;;;;;5106140;28;20100;-84
2022/07/08 11:48:12;;;;;;;9.18;1.23;;;23.60;99.90;;;;;;5087936;28;20043;-84
2022/07/08 11:50:47;;;;;;;2.90;0.93;;;23.50;99.90;;;;;;5105827;28;20074;-84
2022/07/08 11:53:23;;;;;;;6.07;0.95;;;23.40;99.90;;;;;;5088629;28;20483;-82
2022/07/08 11:55:49;;;;;;;6.80;1.50;;;23.20;99.90;;;;;;5087293;28;20562;-83
2022/07/08 11:58:22;;;;;;;4.82;2.03;;;23.10;99.90;;;;;;5106192;28;20118;-83
2022/07/08 12:00:49;;;;;;;8.43;1.25;;;23.10;99.90;;;;;;5103866;28;20039;-83
2022/07/08 12:03:15;;;;;;;3.30;1.08;;;23.10;99.90;;;;;;5088347;28;20039;-82
2022/07/08 12:05:41;;;;;;;5.00;1.20;;;23.30;99.90;;;;;;5104144;28;20047;-82
2022/07/08 12:08:11;;;;;;;7.18;1.30;;;23.50;99.90;;;;;;5071065;28;20036;-82
2022/07/08 12:10:37;;;;;;;5.88;1.40;;;23.70;99.90;;;;;;5105287;28;20043;-83
2022/07/08 12:13:03;;;;;;;6.90;1.08;;;23.70;99.90;;;;;;5103858;28;20181;-83
2022/07/08 12:15:36;;;;;;;7.15;1.42;;;23.70;99.90;;;;;;5089088;28;20043;-82
2022/07/08 12:18:03;;;;;;;7.47;1.30;;;23.70;99.90;;;;;;5103441;28;20039;-82
2022/07/08 12:20:37;;;;;;;5.82;1.40;;;23.80;99.90;;;;;;5104863;28;20127;-82
2022/07/08 12:23:03;;;;;;;6.35;1.40;;;24.00;99.90;;;;;;5105389;28;20104;-83
2022/07/08 12:25:46;;;;;;;7.40;0.93;;;24.00;99.90;;;;;;5087685;28;20058;-84
2022/07/08 12:28:12;;;;;;;6.85;1.65;;;24.20;99.90;;;;;;5107437;28;20074;-83
2022/07/08 12:30:39;;;;;;;3.20;1.10;;;24.20;99.90;;;;;;5088335;28;20054;-82
2022/07/08 12:33:05;;;;;;;5.55;1.30;;;24.20;99.90;;;;;;5110903;28;20115;-84
2022/07/08 12:35:35;;;;;;;8.63;1.50;;;24.20;99.90;;;;;;5073823;28;20053;-83
2022/07/08 12:38:10;;;;;;;3.60;0.98;;;24.00;99.90;;;;;;5072407;28;20119;-83
2022/07/08 12:40:40;;;;;;;5.35;1.50;;;24.20;99.90;;;;;;5109182;28;20499;-83
2022/07/08 12:43:08;;;;;;;3.83;1.35;;;24.30;99.90;;;;;;5087482;28;20048;-84
2022/07/08 12:45:35;;;;;;;6.55;1.13;;;24.50;99.90;;;;;;5092049;28;20110;-83
2022/07/08 12:48:02;;;;;;;5.00;1.02;;;24.50;99.90;;;;;;5108678;28;20039;-83
2022/07/08 12:50:28;;;;;;;6.05;1.40;;;24.30;99.90;;;;;;5110045;28;20055;-83